Nearby METAR Reports

Meteorological Terminal Air Report (METAR)

K3I2 - Pt Pleasant, West Virginia, USA
Distance from station: S 11mi, 18km
Updated: Thu, 13-May-2021 5:20pm EDT
Clear
Clear
 Wind from N
Wind: N 6 mph , 9 km/h
Temperature: 70°F , 21°C
Dew Point: 30°F , -1°C
Humidity: 23%
Barometer: 30.28 inHg , 1025.4 hPa
Clouds: Clear
Visibility: 10 miles , 16 km
2021/05/13 21:20 K3I2 132120Z AUTO 36005KT 10SM CLR 21/M01 A3028 RMK AO2 T02091015
KUNI - Athens, Ohio, USA
Distance from station: NW 13mi, 21km
Updated: Thu, 13-May-2021 5:15pm EDT
Rain, Clear
Rain, Clear
 Wind from NE
Wind: NE 10 mph , 17 km/h
Temperature: 68°F , 20°C
Dew Point: 32°F , 0°C
Humidity: 26%
Barometer: 30.27 inHg , 1025.1 hPa
Summary: Rain
Clouds: Clear
Visibility: 10 miles , 16 km
2021/05/13 21:15 KUNI 132115Z AUTO 04009KT 10SM RA CLR 20/00 A3027 RMK AO2 T02031004
 
KPKB - Parkersburg, West Virginia, USA
Distance from station: ENE 40mi, 65km
Updated: Thu, 13-May-2021 4:53pm EDT
Clear
Clear
 Wind from ENE
Wind: ENE 9 mph , 15 km/h
Temperature: 66°F , 19°C
Dew Point: 30°F , -1°C
Humidity: 26%
Barometer: 30.27 inHg , 1025.1 hPa
Clouds: Clear
Visibility: 10 miles , 16 km
2021/05/13 20:53 KPKB 132053Z 06008KT 10SM CLR 19/M01 A3027 RMK AO2 SLP252 T01891006 56018
KCRW - Charleston, West Virginia, USA
Distance from station: SSE 55mi, 88km
Updated: Thu, 13-May-2021 4:54pm EDT
Partly cloudy
Partly cloudy
 Wind from NNW
Wind: NNW 8 mph , 13 km/h
Temperature: 66°F , 19°C
Dew Point: 25°F , -4°C
Humidity: 21%
Barometer: 30.24 inHg , 1024 hPa
Clouds: Partly cloudy
Visibility: 10 miles , 16 km
Cloud details: Partly cloudy 9500 ft
2021/05/13 20:54 KCRW 132054Z 33007KT 300V010 10SM SCT095 19/M04 A3024 RMK AO2 SLP241 T01891044 56019
 
KHTS - Huntington, West Virginia, USA
Distance from station: SSW 55mi, 89km
Updated: Thu, 13-May-2021 4:51pm EDT
Clear
Clear
 Wind from calm
Wind: Calm
Temperature: 66°F , 19°C
Dew Point: 27°F , -3°C
Humidity: 22%
Barometer: 30.26 inHg , 1024.7 hPa
Clouds: Clear
Visibility: 10 miles , 16 km
2021/05/13 20:51 KHTS 132051Z 00000KT 10SM CLR 19/M03 A3026 RMK AO2 SLP245 T01941028 56019
KLHQ - Lancaster, Ohio, USA
Distance from station: NW 56mi, 91km
Updated: Thu, 13-May-2021 4:53pm EDT
Clear
Clear
 Wind from NNE
Wind: NNE 12 mph , 19 km/h
Temperature: 66°F , 19°C
Dew Point: 34°F , 1°C
Humidity: 30%
Barometer: 30.29 inHg , 1025.7 hPa
Clouds: Clear
Visibility: 10 miles , 16 km
2021/05/13 20:53 KLHQ 132053Z AUTO 03010KT 10SM CLR 19/01 A3029 RMK AO2 SLP260 T01890011 56020
 
KZZV - Zanesville, Ohio, USA
Distance from station: N 61mi, 99km
Updated: Thu, 13-May-2021 4:53pm EDT
Few Clouds
Few Clouds
 Wind from NNW
Wind: NNW 5 mph , 7 km/h
Temperature: 66°F , 19°C
Dew Point: 34°F , 1°C
Humidity: 30%
Barometer: 30.28 inHg , 1025.4 hPa
Clouds: Few Clouds
Visibility: 10 miles , 16 km
Cloud details: Few Clouds 9500 ft
2021/05/13 20:53 KZZV 132053Z AUTO 33004KT 10SM FEW095 19/01 A3028 RMK AO2 SLP256 T01890011 58019
KLCK - Rickenbacker Ang, Ohio, USA
Distance from station: NW 68mi, 110km
Updated: Thu, 13-May-2021 4:55pm EDT
Clear
Clear
 Wind from NE
Wind: NE 9 mph , 15 km/h, Gust: 18 mph , 30 km/h
Temperature: 64°F , 18°C
Dew Point: 30°F , -1°C
Humidity: 28%
Barometer: 30.29 inHg , 1025.7 hPa
Clouds: Clear
Visibility: 10 miles , 16 km
2021/05/13 20:55 KLCK 132055Z AUTO 05008G16KT 10SM CLR 18/M01 A3029 RMK AO2 T01831010
 
KVTA - Newark, Ohio, USA
Distance from station: NNW 68mi, 110km
Updated: Thu, 13-May-2021 4:54pm EDT
Clear
Clear
 Wind from N
Wind: N 9 mph , 15 km/h
Temperature: 66°F , 19°C
Dew Point: 32°F , 0°C
Humidity: 28%
Barometer: 30.29 inHg , 1025.7 hPa
Clouds: Clear
Visibility: 10 miles , 16 km
2021/05/13 20:54 KVTA 132054Z AUTO 36008KT 320V030 10SM CLR 19/00 A3029 RMK AO2 SLP257 T01940000 58018